Terminal Aerodrome Forecast
Issued by NWS

Home | Current Version | Previous Version | Text Only | Print | Product List | Glossary On
Versions: 1 2 3 4 5 6 7 8 9 10 11 12 13 14 15 16 17
000
FTUS41 KPBZ 311000 AAC
TAFLBE
TAF AMD
KLBE 311001Z 3110/0106 22008KT 5SM -SHRA OVC030
     FM311400 22010KT 3SM SHRA OVC015
     FM312000 21010KT 5SM -SHRA VCTS OVC020CB
     FM312300 24010KT 6SM -SHRA BR OVC020=

USA.gov is the U.S. government's official web portal to all federal, state and local government web resources and services.